sensor_id;sensor_type;location;lat;lon;timestamp;temperature;humidity
11423;DHT22;5768;51.476;7.210;2022-09-13T00:04:19;20.20;13.50
11423;DHT22;5768;51.476;7.210;2022-09-13T00:09:21;20.10;13.40
11423;DHT22;5768;51.476;7.210;2022-09-13T00:14:23;20.20;13.40
11423;DHT22;5768;51.476;7.210;2022-09-13T00:19:27;20.20;13.50
11423;DHT22;5768;51.476;7.210;2022-09-13T00:24:29;20.20;13.40
11423;DHT22;5768;51.476;7.210;2022-09-13T00:29:31;20.20;13.40
11423;DHT22;5768;51.476;7.210;2022-09-13T00:34:35;20.30;13.40
11423;DHT22;5768;51.476;7.210;2022-09-13T00:39:37;20.30;13.40
11423;DHT22;5768;51.476;7.210;2022-09-13T00:44:53;20.30;13.20
11423;DHT22;5768;51.476;7.210;2022-09-13T00:50:04;20.40;13.30
11423;DHT22;5768;51.476;7.210;2022-09-13T00:55:15;20.40;13.20
11423;DHT22;5768;51.476;7.210;2022-09-13T01:00:20;20.50;13.20
11423;DHT22;5768;51.476;7.210;2022-09-13T01:05:28;20.60;13.10
11423;DHT22;5768;51.476;7.210;2022-09-13T01:10:33;20.40;13.20
11423;DHT22;5768;51.476;7.210;2022-09-13T01:15:39;20.40;13.20
11423;DHT22;5768;51.476;7.210;2022-09-13T01:26:59;20.30;13.20
11423;DHT22;5768;51.476;7.210;2022-09-13T01:32:29;20.30;13.20
11423;DHT22;5768;51.476;7.210;2022-09-13T01:37:49;20.20;13.20
11423;DHT22;5768;51.476;7.210;2022-09-13T01:43:07;20.10;13.40
11423;DHT22;5768;51.476;7.210;2022-09-13T01:48:27;20.30;13.40
11423;DHT22;5768;51.476;7.210;2022-09-13T01:53:42;20.10;13.40
11423;DHT22;5768;51.476;7.210;2022-09-13T01:58:54;20.10;13.40
11423;DHT22;5768;51.476;7.210;2022-09-13T02:04:04;20.10;13.30
11423;DHT22;5768;51.476;7.210;2022-09-13T02:09:13;20.10;13.40
11423;DHT22;5768;51.476;7.210;2022-09-13T02:14:19;20.10;13.30
11423;DHT22;5768;51.476;7.210;2022-09-13T02:19:28;20.10;13.30
11423;DHT22;5768;51.476;7.210;2022-09-13T02:24:39;20.20;13.20
11423;DHT22;5768;51.476;7.210;2022-09-13T02:29:45;20.20;13.30
11423;DHT22;5768;51.476;7.210;2022-09-13T02:34:54;20.20;13.30
11423;DHT22;5768;51.476;7.210;2022-09-13T02:40:06;20.10;13.30
11423;DHT22;5768;51.476;7.210;2022-09-13T02:45:13;20.10;13.30
11423;DHT22;5768;51.476;7.210;2022-09-13T02:50:31;20.10;13.30
11423;DHT22;5768;51.476;7.210;2022-09-13T02:55:46;20.20;13.40
11423;DHT22;5768;51.476;7.210;2022-09-13T03:00:57;20.30;13.40
11423;DHT22;5768;51.476;7.210;2022-09-13T03:06:02;20.30;13.40
11423;DHT22;5768;51.476;7.210;2022-09-13T03:11:10;20.30;13.30
11423;DHT22;5768;51.476;7.210;2022-09-13T03:16:27;20.30;13.40
11423;DHT22;5768;51.476;7.210;2022-09-13T03:21:56;20.40;13.30
11423;DHT22;5768;51.476;7.210;2022-09-13T03:27:17;20.40;13.30
11423;DHT22;5768;51.476;7.210;2022-09-13T03:32:39;20.40;13.30
11423;DHT22;5768;51.476;7.210;2022-09-13T03:37:55;20.30;13.20
11423;DHT22;5768;51.476;7.210;2022-09-13T03:43:06;20.20;13.30
11423;DHT22;5768;51.476;7.210;2022-09-13T03:48:13;20.20;13.40
11423;DHT22;5768;51.476;7.210;2022-09-13T03:53:21;20.20;13.40
11423;DHT22;5768;51.476;7.210;2022-09-13T03:58:25;20.20;13.60
11423;DHT22;5768;51.476;7.210;2022-09-13T04:03:28;20.30;13.60
11423;DHT22;5768;51.476;7.210;2022-09-13T04:08:32;20.30;13.70
11423;DHT22;5768;51.476;7.210;2022-09-13T04:13:35;20.30;13.80
11423;DHT22;5768;51.476;7.210;2022-09-13T04:18:37;20.30;13.90
11423;DHT22;5768;51.476;7.210;2022-09-13T04:23:40;20.20;14.20
11423;DHT22;5768;51.476;7.210;2022-09-13T04:28:43;20.30;14.20
11423;DHT22;5768;51.476;7.210;2022-09-13T04:33:45;20.20;14.20
11423;DHT22;5768;51.476;7.210;2022-09-13T04:38:48;20.00;14.20
11423;DHT22;5768;51.476;7.210;2022-09-13T04:43:50;19.90;14.20
11423;DHT22;5768;51.476;7.210;2022-09-13T04:48:53;19.90;14.30
11423;DHT22;5768;51.476;7.210;2022-09-13T04:53:56;20.00;14.40
11423;DHT22;5768;51.476;7.210;2022-09-13T04:58:59;20.00;14.20
11423;DHT22;5768;51.476;7.210;2022-09-13T05:04:02;19.90;14.10
11423;DHT22;5768;51.476;7.210;2022-09-13T05:09:06;19.90;14.10
11423;DHT22;5768;51.476;7.210;2022-09-13T05:14:09;20.00;14.00
11423;DHT22;5768;51.476;7.210;2022-09-13T05:19:12;19.90;14.20
11423;DHT22;5768;51.476;7.210;2022-09-13T05:24:16;19.90;14.20
11423;DHT22;5768;51.476;7.210;2022-09-13T05:29:18;19.90;14.20
11423;DHT22;5768;51.476;7.210;2022-09-13T05:34:21;19.90;14.20
11423;DHT22;5768;51.476;7.210;2022-09-13T05:39:24;19.90;14.20
11423;DHT22;5768;51.476;7.210;2022-09-13T05:44:26;19.90;14.10
11423;DHT22;5768;51.476;7.210;2022-09-13T05:49:28;19.90;14.10
11423;DHT22;5768;51.476;7.210;2022-09-13T05:54:32;20.10;14.00
11423;DHT22;5768;51.476;7.210;2022-09-13T05:59:34;20.10;14.00
11423;DHT22;5768;51.476;7.210;2022-09-13T06:04:36;20.20;14.00
11423;DHT22;5768;51.476;7.210;2022-09-13T06:09:40;20.20;14.00
11423;DHT22;5768;51.476;7.210;2022-09-13T06:14:42;20.30;14.00
11423;DHT22;5768;51.476;7.210;2022-09-13T06:19:44;20.30;14.00
11423;DHT22;5768;51.476;7.210;2022-09-13T06:24:47;20.20;14.00
11423;DHT22;5768;51.476;7.210;2022-09-13T06:29:50;20.30;14.00
11423;DHT22;5768;51.476;7.210;2022-09-13T06:34:52;20.60;14.00
11423;DHT22;5768;51.476;7.210;2022-09-13T06:39:56;20.40;14.00
11423;DHT22;5768;51.476;7.210;2022-09-13T06:44:58;20.60;13.90
11423;DHT22;5768;51.476;7.210;2022-09-13T06:50:00;20.70;13.90
11423;DHT22;5768;51.476;7.210;2022-09-13T06:55:04;20.80;13.90
11423;DHT22;5768;51.476;7.210;2022-09-13T07:00:08;20.70;13.90
11423;DHT22;5768;51.476;7.210;2022-09-13T07:05:11;20.80;13.90
11423;DHT22;5768;51.476;7.210;2022-09-13T07:10:17;21.00;13.80
11423;DHT22;5768;51.476;7.210;2022-09-13T07:15:19;21.30;13.70
11423;DHT22;5768;51.476;7.210;2022-09-13T07:20:21;21.70;13.50
11423;DHT22;5768;51.476;7.210;2022-09-13T07:25:25;21.70;13.40
11423;DHT22;5768;51.476;7.210;2022-09-13T07:30:27;21.60;13.50
11423;DHT22;5768;51.476;7.210;2022-09-13T07:35:29;22.00;13.40
11423;DHT22;5768;51.476;7.210;2022-09-13T07:40:33;22.10;13.20
11423;DHT22;5768;51.476;7.210;2022-09-13T07:45:36;22.00;13.20
11423;DHT22;5768;51.476;7.210;2022-09-13T07:50:38;22.20;13.20
11423;DHT22;5768;51.476;7.210;2022-09-13T07:55:41;22.00;13.10
11423;DHT22;5768;51.476;7.210;2022-09-13T08:00:44;22.20;13.10
11423;DHT22;5768;51.476;7.210;2022-09-13T08:05:46;22.60;13.00
11423;DHT22;5768;51.476;7.210;2022-09-13T08:10:49;22.60;13.00
11423;DHT22;5768;51.476;7.210;2022-09-13T08:15:52;22.60;12.90
11423;DHT22;5768;51.476;7.210;2022-09-13T08:20:55;22.80;12.80
11423;DHT22;5768;51.476;7.210;2022-09-13T08:26:01;22.90;12.80
11423;DHT22;5768;51.476;7.210;2022-09-13T08:31:07;23.00;12.80
11423;DHT22;5768;51.476;7.210;2022-09-13T08:36:10;23.30;12.70
11423;DHT22;5768;51.476;7.210;2022-09-13T08:47:34;23.40;12.60
11423;DHT22;5768;51.476;7.210;2022-09-13T08:52:48;23.50;12.70
11423;DHT22;5768;51.476;7.210;2022-09-13T08:58:03;23.50;12.60
11423;DHT22;5768;51.476;7.210;2022-09-13T09:03:20;23.40;12.60
11423;DHT22;5768;51.476;7.210;2022-09-13T09:08:32;23.50;12.70
11423;DHT22;5768;51.476;7.210;2022-09-13T09:13:47;23.60;12.50
11423;DHT22;5768;51.476;7.210;2022-09-13T09:18:57;23.40;12.50
11423;DHT22;5768;51.476;7.210;2022-09-13T09:24:03;23.70;12.60
11423;DHT22;5768;51.476;7.210;2022-09-13T09:29:16;24.00;12.60
11423;DHT22;5768;51.476;7.210;2022-09-13T09:34:25;24.10;12.50
11423;DHT22;5768;51.476;7.210;2022-09-13T09:39:42;24.10;12.40
11423;DHT22;5768;51.476;7.210;2022-09-13T09:44:49;24.60;12.30
11423;DHT22;5768;51.476;7.210;2022-09-13T09:49:55;24.80;12.30
11423;DHT22;5768;51.476;7.210;2022-09-13T09:55:14;24.60;12.40
11423;DHT22;5768;51.476;7.210;2022-09-13T10:00:25;24.50;12.40
11423;DHT22;5768;51.476;7.210;2022-09-13T10:05:30;25.10;12.30
11423;DHT22;5768;51.476;7.210;2022-09-13T10:10:37;25.50;12.20
11423;DHT22;5768;51.476;7.210;2022-09-13T10:15:53;25.50;12.10
11423;DHT22;5768;51.476;7.210;2022-09-13T10:21:03;25.90;11.90
11423;DHT22;5768;51.476;7.210;2022-09-13T10:26:09;25.80;11.90
11423;DHT22;5768;51.476;7.210;2022-09-13T10:31:17;25.80;11.80
11423;DHT22;5768;51.476;7.210;2022-09-13T10:36:23;25.80;12.00
11423;DHT22;5768;51.476;7.210;2022-09-13T10:41:31;25.90;11.90
11423;DHT22;5768;51.476;7.210;2022-09-13T10:46:38;26.10;11.80
11423;DHT22;5768;51.476;7.210;2022-09-13T10:51:42;26.50;11.80
11423;DHT22;5768;51.476;7.210;2022-09-13T10:56:44;26.50;11.80
11423;DHT22;5768;51.476;7.210;2022-09-13T11:13:19;26.80;11.60
11423;DHT22;5768;51.476;7.210;2022-09-13T11:24:19;26.80;11.60
11423;DHT22;5768;51.476;7.210;2022-09-13T11:29:52;26.60;11.80
11423;DHT22;5768;51.476;7.210;2022-09-13T11:35:18;26.10;11.80
11423;DHT22;5768;51.476;7.210;2022-09-13T11:40:40;26.30;11.80
11423;DHT22;5768;51.476;7.210;2022-09-13T11:45:58;26.40;11.80
11423;DHT22;5768;51.476;7.210;2022-09-13T11:51:17;26.90;11.70
11423;DHT22;5768;51.476;7.210;2022-09-13T11:56:31;27.20;11.60
11423;DHT22;5768;51.476;7.210;2022-09-13T12:01:39;28.20;11.40
11423;DHT22;5768;51.476;7.210;2022-09-13T12:06:50;28.10;11.30
11423;DHT22;5768;51.476;7.210;2022-09-13T12:11:58;28.90;11.20
11423;DHT22;5768;51.476;7.210;2022-09-13T12:17:14;30.00;11.00
11423;DHT22;5768;51.476;7.210;2022-09-13T12:22:29;30.30;10.80
11423;DHT22;5768;51.476;7.210;2022-09-13T12:27:38;29.60;10.80
11423;DHT22;5768;51.476;7.210;2022-09-13T12:32:44;29.50;10.90
11423;DHT22;5768;51.476;7.210;2022-09-13T12:38:09;30.30;10.80
11423;DHT22;5768;51.476;7.210;2022-09-13T12:43:47;31.20;10.50
11423;DHT22;5768;51.476;7.210;2022-09-13T12:49:24;30.80;10.50
11423;DHT22;5768;51.476;7.210;2022-09-13T13:00:32;31.40;10.60
11423;DHT22;5768;51.476;7.210;2022-09-13T13:05:41;29.80;10.90
11423;DHT22;5768;51.476;7.210;2022-09-13T13:10:59;30.20;10.80
11423;DHT22;5768;51.476;7.210;2022-09-13T13:16:22;29.80;10.90
11423;DHT22;5768;51.476;7.210;2022-09-13T13:21:36;30.20;10.90
11423;DHT22;5768;51.476;7.210;2022-09-13T13:26:46;31.90;10.50
11423;DHT22;5768;51.476;7.210;2022-09-13T13:32:10;32.70;10.10
11423;DHT22;5768;51.476;7.210;2022-09-13T13:37:34;30.80;10.40
11423;DHT22;5768;51.476;7.210;2022-09-13T13:42:40;30.50;10.60
11423;DHT22;5768;51.476;7.210;2022-09-13T13:53:21;34.80;9.70
11423;DHT22;5768;51.476;7.210;2022-09-13T13:58:45;37.70;9.10
11423;DHT22;5768;51.476;7.210;2022-09-13T14:04:03;38.70;8.60
11423;DHT22;5768;51.476;7.210;2022-09-13T14:09:31;38.70;8.60
11423;DHT22;5768;51.476;7.210;2022-09-13T14:14:58;38.60;8.50
11423;DHT22;5768;51.476;7.210;2022-09-13T14:20:40;35.00;9.20
11423;DHT22;5768;51.476;7.210;2022-09-13T14:26:10;34.20;9.30
11423;DHT22;5768;51.476;7.210;2022-09-13T14:31:24;34.80;9.20
11423;DHT22;5768;51.476;7.210;2022-09-13T14:36:27;36.00;9.00
11423;DHT22;5768;51.476;7.210;2022-09-13T14:41:32;33.00;9.50
11423;DHT22;5768;51.476;7.210;2022-09-13T14:46:41;31.90;9.80
11423;DHT22;5768;51.476;7.210;2022-09-13T14:51:48;30.60;10.30
11423;DHT22;5768;51.476;7.210;2022-09-13T14:56:58;30.00;10.50
11423;DHT22;5768;51.476;7.210;2022-09-13T15:02:16;29.50;10.90
11423;DHT22;5768;51.476;7.210;2022-09-13T15:07:28;29.20;11.10
11423;DHT22;5768;51.476;7.210;2022-09-13T15:12:35;29.50;11.10
11423;DHT22;5768;51.476;7.210;2022-09-13T15:17:54;29.80;11.00
11423;DHT22;5768;51.476;7.210;2022-09-13T15:22:57;30.10;11.10
11423;DHT22;5768;51.476;7.210;2022-09-13T15:28:00;30.40;10.90
11423;DHT22;5768;51.476;7.210;2022-09-13T15:33:14;30.50;11.00
11423;DHT22;5768;51.476;7.210;2022-09-13T15:38:25;30.00;11.00
11423;DHT22;5768;51.476;7.210;2022-09-13T15:43:30;28.90;11.40
11423;DHT22;5768;51.476;7.210;2022-09-13T15:48:35;28.50;11.50
11423;DHT22;5768;51.476;7.210;2022-09-13T15:53:39;28.10;11.80
11423;DHT22;5768;51.476;7.210;2022-09-13T15:58:43;27.80;11.90
11423;DHT22;5768;51.476;7.210;2022-09-13T16:03:46;27.80;11.90
11423;DHT22;5768;51.476;7.210;2022-09-13T16:08:49;27.50;12.00
11423;DHT22;5768;51.476;7.210;2022-09-13T16:13:51;27.20;12.30
11423;DHT22;5768;51.476;7.210;2022-09-13T16:18:55;26.40;12.50
11423;DHT22;5768;51.476;7.210;2022-09-13T16:23:57;26.00;12.90
11423;DHT22;5768;51.476;7.210;2022-09-13T16:29:00;26.00;13.00
11423;DHT22;5768;51.476;7.210;2022-09-13T16:34:04;26.00;13.00
11423;DHT22;5768;51.476;7.210;2022-09-13T16:39:06;25.90;13.20
11423;DHT22;5768;51.476;7.210;2022-09-13T16:44:09;25.40;13.40
11423;DHT22;5768;51.476;7.210;2022-09-13T16:49:13;25.00;13.70
11423;DHT22;5768;51.476;7.210;2022-09-13T16:54:16;24.70;13.90
11423;DHT22;5768;51.476;7.210;2022-09-13T16:59:18;24.60;14.10
11423;DHT22;5768;51.476;7.210;2022-09-13T17:04:22;24.40;14.30
11423;DHT22;5768;51.476;7.210;2022-09-13T17:09:25;24.20;14.50
11423;DHT22;5768;51.476;7.210;2022-09-13T17:14:27;24.10;14.60
11423;DHT22;5768;51.476;7.210;2022-09-13T17:19:31;24.00;14.60
11423;DHT22;5768;51.476;7.210;2022-09-13T17:24:34;23.90;14.80
11423;DHT22;5768;51.476;7.210;2022-09-13T17:29:36;24.00;14.80
11423;DHT22;5768;51.476;7.210;2022-09-13T17:34:40;24.00;14.70
11423;DHT22;5768;51.476;7.210;2022-09-13T17:39:42;23.80;14.80
11423;DHT22;5768;51.476;7.210;2022-09-13T17:44:45;23.60;15.00
11423;DHT22;5768;51.476;7.210;2022-09-13T17:49:48;23.70;15.00
11423;DHT22;5768;51.476;7.210;2022-09-13T17:54:51;23.80;15.00
11423;DHT22;5768;51.476;7.210;2022-09-13T17:59:53;23.80;15.00
11423;DHT22;5768;51.476;7.210;2022-09-13T18:04:57;23.70;15.00
11423;DHT22;5768;51.476;7.210;2022-09-13T18:10:00;23.60;15.00
11423;DHT22;5768;51.476;7.210;2022-09-13T18:15:03;23.60;15.10
11423;DHT22;5768;51.476;7.210;2022-09-13T18:20:08;23.60;15.10
11423;DHT22;5768;51.476;7.210;2022-09-13T18:25:13;23.60;15.00
11423;DHT22;5768;51.476;7.210;2022-09-13T18:30:16;23.60;15.10
11423;DHT22;5768;51.476;7.210;2022-09-13T18:35:21;23.60;15.10
11423;DHT22;5768;51.476;7.210;2022-09-13T18:40:24;23.50;15.10
11423;DHT22;5768;51.476;7.210;2022-09-13T18:45:27;23.50;15.20
11423;DHT22;5768;51.476;7.210;2022-09-13T18:50:30;23.40;15.20
11423;DHT22;5768;51.476;7.210;2022-09-13T18:55:34;23.30;15.30
11423;DHT22;5768;51.476;7.210;2022-09-13T19:00:39;23.30;15.30
11423;DHT22;5768;51.476;7.210;2022-09-13T19:05:44;23.30;15.40
11423;DHT22;5768;51.476;7.210;2022-09-13T19:10:46;23.30;15.40
11423;DHT22;5768;51.476;7.210;2022-09-13T19:15:49;23.30;15.40
11423;DHT22;5768;51.476;7.210;2022-09-13T19:21:00;23.30;15.50
11423;DHT22;5768;51.476;7.210;2022-09-13T19:26:04;23.30;15.40
11423;DHT22;5768;51.476;7.210;2022-09-13T19:31:10;23.30;15.40
11423;DHT22;5768;51.476;7.210;2022-09-13T19:36:17;23.20;15.40
11423;DHT22;5768;51.476;7.210;2022-09-13T19:41:24;23.20;15.40
11423;DHT22;5768;51.476;7.210;2022-09-13T19:46:29;23.10;15.30
11423;DHT22;5768;51.476;7.210;2022-09-13T19:51:36;23.00;15.40
11423;DHT22;5768;51.476;7.210;2022-09-13T19:56:41;22.90;15.20
11423;DHT22;5768;51.476;7.210;2022-09-13T20:01:46;22.80;14.80
11423;DHT22;5768;51.476;7.210;2022-09-13T20:06:52;22.70;14.60
11423;DHT22;5768;51.476;7.210;2022-09-13T20:11:55;22.60;14.60
11423;DHT22;5768;51.476;7.210;2022-09-13T20:17:00;22.50;14.60
11423;DHT22;5768;51.476;7.210;2022-09-13T20:22:05;22.40;14.50
11423;DHT22;5768;51.476;7.210;2022-09-13T20:27:07;22.30;14.20
11423;DHT22;5768;51.476;7.210;2022-09-13T20:32:10;22.10;14.00
11423;DHT22;5768;51.476;7.210;2022-09-13T20:37:13;22.10;13.80
11423;DHT22;5768;51.476;7.210;2022-09-13T20:42:16;22.00;13.80
11423;DHT22;5768;51.476;7.210;2022-09-13T20:47:18;22.00;13.80
11423;DHT22;5768;51.476;7.210;2022-09-13T20:52:22;21.90;13.80
11423;DHT22;5768;51.476;7.210;2022-09-13T20:57:24;21.90;13.70
11423;DHT22;5768;51.476;7.210;2022-09-13T21:02:27;21.90;13.40
11423;DHT22;5768;51.476;7.210;2022-09-13T21:07:33;21.80;13.40
11423;DHT22;5768;51.476;7.210;2022-09-13T21:12:52;21.70;13.20
11423;DHT22;5768;51.476;7.210;2022-09-13T21:17:56;21.60;13.00
11423;DHT22;5768;51.476;7.210;2022-09-13T21:22:59;21.60;12.80
11423;DHT22;5768;51.476;7.210;2022-09-13T21:28:02;21.60;12.80
11423;DHT22;5768;51.476;7.210;2022-09-13T21:33:04;21.60;12.80
11423;DHT22;5768;51.476;7.210;2022-09-13T21:38:08;21.40;12.80
11423;DHT22;5768;51.476;7.210;2022-09-13T21:43:10;21.60;12.80
11423;DHT22;5768;51.476;7.210;2022-09-13T21:48:12;21.50;12.80
11423;DHT22;5768;51.476;7.210;2022-09-13T21:53:17;21.40;12.80
11423;DHT22;5768;51.476;7.210;2022-09-13T21:58:19;21.50;12.90
11423;DHT22;5768;51.476;7.210;2022-09-13T22:03:21;21.40;12.80
11423;DHT22;5768;51.476;7.210;2022-09-13T22:08:25;21.40;12.90
11423;DHT22;5768;51.476;7.210;2022-09-13T22:13:31;21.40;12.90
11423;DHT22;5768;51.476;7.210;2022-09-13T22:18:35;21.20;12.90
11423;DHT22;5768;51.476;7.210;2022-09-13T22:23:39;21.20;12.80
11423;DHT22;5768;51.476;7.210;2022-09-13T22:28:51;21.10;12.90
11423;DHT22;5768;51.476;7.210;2022-09-13T22:33:55;21.10;12.90
11423;DHT22;5768;51.476;7.210;2022-09-13T22:39:01;21.10;12.90
11423;DHT22;5768;51.476;7.210;2022-09-13T22:44:07;21.20;12.90
11423;DHT22;5768;51.476;7.210;2022-09-13T22:49:11;21.10;13.00
11423;DHT22;5768;51.476;7.210;2022-09-13T22:54:17;21.00;13.00
11423;DHT22;5768;51.476;7.210;2022-09-13T22:59:20;21.00;13.00
11423;DHT22;5768;51.476;7.210;2022-09-13T23:04:22;20.90;13.10
11423;DHT22;5768;51.476;7.210;2022-09-13T23:09:26;20.90;13.10
11423;DHT22;5768;51.476;7.210;2022-09-13T23:14:28;20.90;13.20
11423;DHT22;5768;51.476;7.210;2022-09-13T23:19:30;20.90;13.50
11423;DHT22;5768;51.476;7.210;2022-09-13T23:24:34;20.80;13.80
11423;DHT22;5768;51.476;7.210;2022-09-13T23:29:36;20.80;14.20
11423;DHT22;5768;51.476;7.210;2022-09-13T23:34:38;20.70;14.10
11423;DHT22;5768;51.476;7.210;2022-09-13T23:39:42;20.60;14.10
11423;DHT22;5768;51.476;7.210;2022-09-13T23:44:44;20.70;14.20
11423;DHT22;5768;51.476;7.210;2022-09-13T23:49:46;20.50;14.60
11423;DHT22;5768;51.476;7.210;2022-09-13T23:54:49;20.40;14.50
11423;DHT22;5768;51.476;7.210;2022-09-13T23:59:51;20.30;14.60
